sensor_id;sensor_type;location;lat;lon;timestamp;temperature;humidity
40374;DHT22;26079;45.958;12.492;2023-11-21T00:00:14;7.40;99.90
40374;DHT22;26079;45.958;12.492;2023-11-21T00:02:41;7.40;99.90
40374;DHT22;26079;45.958;12.492;2023-11-21T00:05:11;7.40;99.90
40374;DHT22;26079;45.958;12.492;2023-11-21T00:07:38;7.40;99.90
40374;DHT22;26079;45.958;12.492;2023-11-21T00:10:04;7.40;99.90
40374;DHT22;26079;45.958;12.492;2023-11-21T00:12:31;7.40;99.90
40374;DHT22;26079;45.958;12.492;2023-11-21T00:14:57;7.40;99.90
40374;DHT22;26079;45.958;12.492;2023-11-21T00:17:23;7.40;99.90
40374;DHT22;26079;45.958;12.492;2023-11-21T00:19:50;7.40;99.90
40374;DHT22;26079;45.958;12.492;2023-11-21T00:22:17;7.40;99.90
40374;DHT22;26079;45.958;12.492;2023-11-21T00:24:43;7.40;99.90
40374;DHT22;26079;45.958;12.492;2023-11-21T00:27:09;7.40;99.90
40374;DHT22;26079;45.958;12.492;2023-11-21T00:29:35;7.40;99.90
40374;DHT22;26079;45.958;12.492;2023-11-21T00:32:01;7.40;99.90
40374;DHT22;26079;45.958;12.492;2023-11-21T00:34:27;7.40;99.90
40374;DHT22;26079;45.958;12.492;2023-11-21T00:36:53;7.40;99.90
40374;DHT22;26079;45.958;12.492;2023-11-21T00:39:18;7.50;99.90
40374;DHT22;26079;45.958;12.492;2023-11-21T00:41:44;7.50;99.90
40374;DHT22;26079;45.958;12.492;2023-11-21T00:44:13;7.60;99.90
40374;DHT22;26079;45.958;12.492;2023-11-21T00:46:39;7.60;99.90
40374;DHT22;26079;45.958;12.492;2023-11-21T00:49:05;7.60;99.90
40374;DHT22;26079;45.958;12.492;2023-11-21T00:51:30;7.60;99.90
40374;DHT22;26079;45.958;12.492;2023-11-21T00:53:56;7.70;99.90
40374;DHT22;26079;45.958;12.492;2023-11-21T00:56:23;7.70;99.90
40374;DHT22;26079;45.958;12.492;2023-11-21T00:58:49;7.70;99.90
40374;DHT22;26079;45.958;12.492;2023-11-21T01:01:16;7.70;99.90
40374;DHT22;26079;45.958;12.492;2023-11-21T01:03:42;7.70;99.90
40374;DHT22;26079;45.958;12.492;2023-11-21T01:06:08;7.70;99.90
40374;DHT22;26079;45.958;12.492;2023-11-21T01:08:34;7.70;99.90
40374;DHT22;26079;45.958;12.492;2023-11-21T01:11:01;7.70;99.90
40374;DHT22;26079;45.958;12.492;2023-11-21T01:13:27;7.70;99.90
40374;DHT22;26079;45.958;12.492;2023-11-21T01:15:53;7.60;99.90
40374;DHT22;26079;45.958;12.492;2023-11-21T01:18:19;7.60;99.90
40374;DHT22;26079;45.958;12.492;2023-11-21T01:20:45;7.60;99.90
40374;DHT22;26079;45.958;12.492;2023-11-21T01:23:13;7.60;99.90
40374;DHT22;26079;45.958;12.492;2023-11-21T01:25:38;7.60;99.90
40374;DHT22;26079;45.958;12.492;2023-11-21T01:28:04;7.60;99.90
40374;DHT22;26079;45.958;12.492;2023-11-21T01:30:30;7.60;99.90
40374;DHT22;26079;45.958;12.492;2023-11-21T01:32:56;7.60;99.90
40374;DHT22;26079;45.958;12.492;2023-11-21T01:35:22;7.60;99.90
40374;DHT22;26079;45.958;12.492;2023-11-21T01:37:48;7.60;99.90
40374;DHT22;26079;45.958;12.492;2023-11-21T01:40:14;7.60;99.90
40374;DHT22;26079;45.958;12.492;2023-11-21T01:42:40;7.50;99.90
40374;DHT22;26079;45.958;12.492;2023-11-21T01:45:07;7.50;99.90
40374;DHT22;26079;45.958;12.492;2023-11-21T01:47:33;7.50;99.90
40374;DHT22;26079;45.958;12.492;2023-11-21T01:49:59;7.40;99.90
40374;DHT22;26079;45.958;12.492;2023-11-21T01:52:26;7.40;99.90
40374;DHT22;26079;45.958;12.492;2023-11-21T01:54:52;7.40;99.90
40374;DHT22;26079;45.958;12.492;2023-11-21T01:57:19;7.40;99.90
40374;DHT22;26079;45.958;12.492;2023-11-21T01:59:48;7.50;99.90
40374;DHT22;26079;45.958;12.492;2023-11-21T02:02:14;7.50;99.90
40374;DHT22;26079;45.958;12.492;2023-11-21T02:04:42;7.50;99.90
40374;DHT22;26079;45.958;12.492;2023-11-21T02:07:08;7.50;99.90
40374;DHT22;26079;45.958;12.492;2023-11-21T02:09:34;7.50;99.90
40374;DHT22;26079;45.958;12.492;2023-11-21T02:12:00;7.50;99.90
40374;DHT22;26079;45.958;12.492;2023-11-21T02:14:27;7.50;99.90
40374;DHT22;26079;45.958;12.492;2023-11-21T02:16:53;7.60;99.90
40374;DHT22;26079;45.958;12.492;2023-11-21T02:19:21;7.60;99.90
40374;DHT22;26079;45.958;12.492;2023-11-21T02:21:57;7.70;99.90
40374;DHT22;26079;45.958;12.492;2023-11-21T02:24:31;7.70;99.90
40374;DHT22;26079;45.958;12.492;2023-11-21T02:26:57;7.80;99.90
40374;DHT22;26079;45.958;12.492;2023-11-21T02:29:23;7.80;99.90
40374;DHT22;26079;45.958;12.492;2023-11-21T02:31:54;7.90;99.90
40374;DHT22;26079;45.958;12.492;2023-11-21T02:34:21;8.00;99.90
40374;DHT22;26079;45.958;12.492;2023-11-21T02:36:48;8.00;99.90
40374;DHT22;26079;45.958;12.492;2023-11-21T02:39:17;8.10;99.90
40374;DHT22;26079;45.958;12.492;2023-11-21T02:41:43;8.20;99.90
40374;DHT22;26079;45.958;12.492;2023-11-21T02:44:10;8.20;99.90
40374;DHT22;26079;45.958;12.492;2023-11-21T02:46:36;8.30;99.90
40374;DHT22;26079;45.958;12.492;2023-11-21T02:49:06;8.30;99.90
40374;DHT22;26079;45.958;12.492;2023-11-21T02:51:32;8.30;99.90
40374;DHT22;26079;45.958;12.492;2023-11-21T02:53:58;8.40;99.90
40374;DHT22;26079;45.958;12.492;2023-11-21T02:56:25;8.50;99.90
40374;DHT22;26079;45.958;12.492;2023-11-21T02:58:52;8.60;99.90
40374;DHT22;26079;45.958;12.492;2023-11-21T03:01:17;8.60;99.90
40374;DHT22;26079;45.958;12.492;2023-11-21T03:03:43;8.60;99.90
40374;DHT22;26079;45.958;12.492;2023-11-21T03:06:09;8.60;99.90
40374;DHT22;26079;45.958;12.492;2023-11-21T03:08:35;8.60;99.90
40374;DHT22;26079;45.958;12.492;2023-11-21T03:11:01;8.60;99.90
40374;DHT22;26079;45.958;12.492;2023-11-21T03:13:29;8.60;99.90
40374;DHT22;26079;45.958;12.492;2023-11-21T03:15:54;8.60;99.90
40374;DHT22;26079;45.958;12.492;2023-11-21T03:18:21;8.70;99.90
40374;DHT22;26079;45.958;12.492;2023-11-21T03:20:53;8.80;99.90
40374;DHT22;26079;45.958;12.492;2023-11-21T03:23:18;8.80;99.90
40374;DHT22;26079;45.958;12.492;2023-11-21T03:25:45;8.80;99.90
40374;DHT22;26079;45.958;12.492;2023-11-21T03:28:10;8.80;99.90
40374;DHT22;26079;45.958;12.492;2023-11-21T03:30:36;8.70;99.90
40374;DHT22;26079;45.958;12.492;2023-11-21T03:33:02;8.70;99.90
40374;DHT22;26079;45.958;12.492;2023-11-21T03:35:27;8.70;99.90
40374;DHT22;26079;45.958;12.492;2023-11-21T03:37:53;8.70;99.90
40374;DHT22;26079;45.958;12.492;2023-11-21T03:40:19;8.60;99.90
40374;DHT22;26079;45.958;12.492;2023-11-21T03:42:47;8.70;99.90
40374;DHT22;26079;45.958;12.492;2023-11-21T03:45:12;8.70;99.90
40374;DHT22;26079;45.958;12.492;2023-11-21T03:47:41;8.70;99.90
40374;DHT22;26079;45.958;12.492;2023-11-21T03:50:07;8.70;99.90
40374;DHT22;26079;45.958;12.492;2023-11-21T03:52:34;8.70;99.90
40374;DHT22;26079;45.958;12.492;2023-11-21T03:55:01;8.70;99.90
40374;DHT22;26079;45.958;12.492;2023-11-21T03:57:26;8.60;99.90
40374;DHT22;26079;45.958;12.492;2023-11-21T03:59:53;8.60;99.90
40374;DHT22;26079;45.958;12.492;2023-11-21T04:02:19;8.60;99.90
40374;DHT22;26079;45.958;12.492;2023-11-21T04:04:45;8.60;99.90
40374;DHT22;26079;45.958;12.492;2023-11-21T04:07:11;8.50;99.90
40374;DHT22;26079;45.958;12.492;2023-11-21T04:09:39;8.50;99.90
40374;DHT22;26079;45.958;12.492;2023-11-21T04:12:05;8.50;99.90
40374;DHT22;26079;45.958;12.492;2023-11-21T04:14:32;8.40;99.90
40374;DHT22;26079;45.958;12.492;2023-11-21T04:16:58;8.40;99.90
40374;DHT22;26079;45.958;12.492;2023-11-21T04:19:23;8.30;99.90
40374;DHT22;26079;45.958;12.492;2023-11-21T04:21:49;8.30;99.90
40374;DHT22;26079;45.958;12.492;2023-11-21T04:24:15;8.30;99.90
40374;DHT22;26079;45.958;12.492;2023-11-21T04:26:41;8.30;99.90
40374;DHT22;26079;45.958;12.492;2023-11-21T04:29:07;8.30;99.90
40374;DHT22;26079;45.958;12.492;2023-11-21T04:31:32;8.20;99.90
40374;DHT22;26079;45.958;12.492;2023-11-21T04:33:58;8.20;99.90
40374;DHT22;26079;45.958;12.492;2023-11-21T04:36:24;8.10;99.90
40374;DHT22;26079;45.958;12.492;2023-11-21T04:38:49;8.10;99.90
40374;DHT22;26079;45.958;12.492;2023-11-21T04:41:15;8.00;99.90
40374;DHT22;26079;45.958;12.492;2023-11-21T04:43:41;8.00;99.90
40374;DHT22;26079;45.958;12.492;2023-11-21T04:46:08;8.00;99.90
40374;DHT22;26079;45.958;12.492;2023-11-21T04:48:34;7.90;99.90
40374;DHT22;26079;45.958;12.492;2023-11-21T04:50:59;7.90;99.90
40374;DHT22;26079;45.958;12.492;2023-11-21T04:53:25;7.80;99.90
40374;DHT22;26079;45.958;12.492;2023-11-21T04:55:51;7.80;99.90
40374;DHT22;26079;45.958;12.492;2023-11-21T04:58:16;7.70;99.90
40374;DHT22;26079;45.958;12.492;2023-11-21T05:00:42;7.70;99.90
40374;DHT22;26079;45.958;12.492;2023-11-21T05:03:09;7.70;99.90
40374;DHT22;26079;45.958;12.492;2023-11-21T05:05:35;7.70;99.90
40374;DHT22;26079;45.958;12.492;2023-11-21T05:08:01;7.70;99.90
40374;DHT22;26079;45.958;12.492;2023-11-21T05:10:27;7.60;99.90
40374;DHT22;26079;45.958;12.492;2023-11-21T05:12:53;7.60;99.90
40374;DHT22;26079;45.958;12.492;2023-11-21T05:15:18;7.70;99.90
40374;DHT22;26079;45.958;12.492;2023-11-21T05:17:44;7.70;99.90
40374;DHT22;26079;45.958;12.492;2023-11-21T05:20:11;7.80;99.90
40374;DHT22;26079;45.958;12.492;2023-11-21T05:22:37;7.80;99.90
40374;DHT22;26079;45.958;12.492;2023-11-21T05:25:05;7.90;99.90
40374;DHT22;26079;45.958;12.492;2023-11-21T05:27:30;7.90;99.90
40374;DHT22;26079;45.958;12.492;2023-11-21T05:29:56;8.00;99.90
40374;DHT22;26079;45.958;12.492;2023-11-21T05:32:24;8.00;99.90
40374;DHT22;26079;45.958;12.492;2023-11-21T05:34:49;8.00;99.90
40374;DHT22;26079;45.958;12.492;2023-11-21T05:37:15;8.00;99.90
40374;DHT22;26079;45.958;12.492;2023-11-21T05:39:41;8.00;99.90
40374;DHT22;26079;45.958;12.492;2023-11-21T05:42:06;8.10;99.90
40374;DHT22;26079;45.958;12.492;2023-11-21T05:44:34;8.10;99.90
40374;DHT22;26079;45.958;12.492;2023-11-21T05:47:00;8.10;99.90
40374;DHT22;26079;45.958;12.492;2023-11-21T05:49:26;8.10;99.90
40374;DHT22;26079;45.958;12.492;2023-11-21T05:51:55;8.10;99.90
40374;DHT22;26079;45.958;12.492;2023-11-21T05:54:21;8.10;99.90
40374;DHT22;26079;45.958;12.492;2023-11-21T05:56:47;8.20;99.90
40374;DHT22;26079;45.958;12.492;2023-11-21T05:59:13;8.20;99.90
40374;DHT22;26079;45.958;12.492;2023-11-21T06:01:40;8.20;99.90
40374;DHT22;26079;45.958;12.492;2023-11-21T06:04:05;8.30;99.90
40374;DHT22;26079;45.958;12.492;2023-11-21T06:06:33;8.30;99.90
40374;DHT22;26079;45.958;12.492;2023-11-21T06:09:00;8.30;99.90
40374;DHT22;26079;45.958;12.492;2023-11-21T06:11:25;8.30;99.90
40374;DHT22;26079;45.958;12.492;2023-11-21T06:13:51;8.30;99.90
40374;DHT22;26079;45.958;12.492;2023-11-21T06:16:19;8.40;99.90
40374;DHT22;26079;45.958;12.492;2023-11-21T06:18:47;8.40;99.90
40374;DHT22;26079;45.958;12.492;2023-11-21T06:21:13;8.40;99.90
40374;DHT22;26079;45.958;12.492;2023-11-21T06:23:40;8.40;99.90
40374;DHT22;26079;45.958;12.492;2023-11-21T06:26:06;8.40;99.90
40374;DHT22;26079;45.958;12.492;2023-11-21T06:28:32;8.40;99.90
40374;DHT22;26079;45.958;12.492;2023-11-21T06:30:58;8.40;99.90
40374;DHT22;26079;45.958;12.492;2023-11-21T06:33:24;8.40;99.90
40374;DHT22;26079;45.958;12.492;2023-11-21T06:35:52;8.40;99.90
40374;DHT22;26079;45.958;12.492;2023-11-21T06:38:18;8.40;99.90
40374;DHT22;26079;45.958;12.492;2023-11-21T06:40:45;8.50;99.90
40374;DHT22;26079;45.958;12.492;2023-11-21T06:43:11;8.50;99.90
40374;DHT22;26079;45.958;12.492;2023-11-21T06:45:36;8.50;99.90
40374;DHT22;26079;45.958;12.492;2023-11-21T06:48:02;8.50;99.90
40374;DHT22;26079;45.958;12.492;2023-11-21T06:50:28;8.50;99.90
40374;DHT22;26079;45.958;12.492;2023-11-21T06:52:54;8.50;99.90
40374;DHT22;26079;45.958;12.492;2023-11-21T06:55:19;8.50;99.90
40374;DHT22;26079;45.958;12.492;2023-11-21T06:57:45;8.50;99.90
40374;DHT22;26079;45.958;12.492;2023-11-21T07:00:13;8.60;99.90
40374;DHT22;26079;45.958;12.492;2023-11-21T07:02:38;8.70;99.90
40374;DHT22;26079;45.958;12.492;2023-11-21T07:05:05;8.70;99.90
40374;DHT22;26079;45.958;12.492;2023-11-21T07:07:31;8.80;99.90
40374;DHT22;26079;45.958;12.492;2023-11-21T07:09:57;8.80;99.90
40374;DHT22;26079;45.958;12.492;2023-11-21T07:12:22;8.80;99.90
40374;DHT22;26079;45.958;12.492;2023-11-21T07:14:51;8.90;99.90
40374;DHT22;26079;45.958;12.492;2023-11-21T07:17:16;9.00;99.90
40374;DHT22;26079;45.958;12.492;2023-11-21T07:19:43;9.10;99.90
40374;DHT22;26079;45.958;12.492;2023-11-21T07:22:08;9.10;99.90
40374;DHT22;26079;45.958;12.492;2023-11-21T07:24:36;9.20;99.90
40374;DHT22;26079;45.958;12.492;2023-11-21T07:27:02;9.30;99.90
40374;DHT22;26079;45.958;12.492;2023-11-21T07:29:30;9.30;99.90
40374;DHT22;26079;45.958;12.492;2023-11-21T07:31:55;9.40;99.90
40374;DHT22;26079;45.958;12.492;2023-11-21T07:34:21;9.40;99.90
40374;DHT22;26079;45.958;12.492;2023-11-21T07:36:47;9.50;99.90
40374;DHT22;26079;45.958;12.492;2023-11-21T07:39:13;9.50;99.90
40374;DHT22;26079;45.958;12.492;2023-11-21T07:41:41;9.50;99.90
40374;DHT22;26079;45.958;12.492;2023-11-21T07:44:11;9.50;99.90
40374;DHT22;26079;45.958;12.492;2023-11-21T07:46:36;9.40;99.90
40374;DHT22;26079;45.958;12.492;2023-11-21T07:49:02;9.40;99.90
40374;DHT22;26079;45.958;12.492;2023-11-21T07:51:28;9.40;99.90
40374;DHT22;26079;45.958;12.492;2023-11-21T07:53:54;9.40;99.90
40374;DHT22;26079;45.958;12.492;2023-11-21T07:56:19;9.40;99.90
40374;DHT22;26079;45.958;12.492;2023-11-21T07:58:45;9.40;99.90
40374;DHT22;26079;45.958;12.492;2023-11-21T08:01:11;9.40;99.90
40374;DHT22;26079;45.958;12.492;2023-11-21T08:03:37;9.40;99.90
40374;DHT22;26079;45.958;12.492;2023-11-21T08:06:03;9.50;99.90
40374;DHT22;26079;45.958;12.492;2023-11-21T08:08:29;9.60;99.90
40374;DHT22;26079;45.958;12.492;2023-11-21T08:10:55;9.70;99.90
40374;DHT22;26079;45.958;12.492;2023-11-21T08:13:27;9.70;99.90
40374;DHT22;26079;45.958;12.492;2023-11-21T08:15:59;9.80;99.90
40374;DHT22;26079;45.958;12.492;2023-11-21T08:18:28;9.90;99.90
40374;DHT22;26079;45.958;12.492;2023-11-21T08:20:55;9.80;99.90
40374;DHT22;26079;45.958;12.492;2023-11-21T08:23:22;9.90;99.90
40374;DHT22;26079;45.958;12.492;2023-11-21T08:25:51;9.90;99.90
40374;DHT22;26079;45.958;12.492;2023-11-21T08:28:17;9.90;99.90
40374;DHT22;26079;45.958;12.492;2023-11-21T08:30:42;9.90;99.90
40374;DHT22;26079;45.958;12.492;2023-11-21T08:33:08;9.80;99.90
40374;DHT22;26079;45.958;12.492;2023-11-21T08:35:34;9.80;99.90
40374;DHT22;26079;45.958;12.492;2023-11-21T08:38:03;9.90;99.90
40374;DHT22;26079;45.958;12.492;2023-11-21T08:40:29;9.90;99.90
40374;DHT22;26079;45.958;12.492;2023-11-21T08:42:54;9.90;99.90
40374;DHT22;26079;45.958;12.492;2023-11-21T08:45:21;9.90;99.90
40374;DHT22;26079;45.958;12.492;2023-11-21T08:47:47;10.00;99.90
40374;DHT22;26079;45.958;12.492;2023-11-21T08:50:13;10.10;99.90
40374;DHT22;26079;45.958;12.492;2023-11-21T08:52:40;10.30;99.90
40374;DHT22;26079;45.958;12.492;2023-11-21T08:55:07;10.50;99.90
40374;DHT22;26079;45.958;12.492;2023-11-21T08:57:38;10.60;99.90
40374;DHT22;26079;45.958;12.492;2023-11-21T09:00:06;10.60;99.90
40374;DHT22;26079;45.958;12.492;2023-11-21T09:02:37;10.70;99.90
40374;DHT22;26079;45.958;12.492;2023-11-21T09:05:05;10.70;99.90
40374;DHT22;26079;45.958;12.492;2023-11-21T09:07:30;10.80;99.90
40374;DHT22;26079;45.958;12.492;2023-11-21T09:09:56;10.80;99.90
40374;DHT22;26079;45.958;12.492;2023-11-21T09:12:22;10.80;99.90
40374;DHT22;26079;45.958;12.492;2023-11-21T09:14:50;10.90;99.90
40374;DHT22;26079;45.958;12.492;2023-11-21T09:17:16;10.90;99.90
40374;DHT22;26079;45.958;12.492;2023-11-21T09:19:42;10.90;99.90
40374;DHT22;26079;45.958;12.492;2023-11-21T09:22:10;10.80;99.90
40374;DHT22;26079;45.958;12.492;2023-11-21T09:24:36;10.90;99.90
40374;DHT22;26079;45.958;12.492;2023-11-21T09:27:03;11.00;99.90
40374;DHT22;26079;45.958;12.492;2023-11-21T09:29:30;11.00;99.90
40374;DHT22;26079;45.958;12.492;2023-11-21T09:31:57;11.00;99.90
40374;DHT22;26079;45.958;12.492;2023-11-21T09:34:25;11.00;99.90
40374;DHT22;26079;45.958;12.492;2023-11-21T09:36:51;11.10;99.90
40374;DHT22;26079;45.958;12.492;2023-11-21T09:39:17;11.10;99.90
40374;DHT22;26079;45.958;12.492;2023-11-21T09:42:02;11.10;99.90
40374;DHT22;26079;45.958;12.492;2023-11-21T09:47:38;11.20;99.90
40374;DHT22;26079;45.958;12.492;2023-11-21T09:50:05;11.30;99.90
40374;DHT22;26079;45.958;12.492;2023-11-21T09:52:49;11.30;99.90
40374;DHT22;26079;45.958;12.492;2023-11-21T09:55:20;11.30;99.90
40374;DHT22;26079;45.958;12.492;2023-11-21T09:57:47;11.40;99.90
40374;DHT22;26079;45.958;12.492;2023-11-21T10:00:14;11.40;99.90
40374;DHT22;26079;45.958;12.492;2023-11-21T10:02:43;11.50;99.90
40374;DHT22;26079;45.958;12.492;2023-11-21T10:05:09;11.50;99.90
40374;DHT22;26079;45.958;12.492;2023-11-21T10:07:38;11.50;99.90
40374;DHT22;26079;45.958;12.492;2023-11-21T10:10:05;11.50;99.90
40374;DHT22;26079;45.958;12.492;2023-11-21T10:12:32;11.50;99.90
40374;DHT22;26079;45.958;12.492;2023-11-21T10:14:59;11.50;99.90
40374;DHT22;26079;45.958;12.492;2023-11-21T10:17:28;11.50;99.90
40374;DHT22;26079;45.958;12.492;2023-11-21T10:19:56;11.60;99.90
40374;DHT22;26079;45.958;12.492;2023-11-21T10:22:23;11.60;99.90
40374;DHT22;26079;45.958;12.492;2023-11-21T10:24:49;11.70;99.90
40374;DHT22;26079;45.958;12.492;2023-11-21T10:27:15;11.80;99.90
40374;DHT22;26079;45.958;12.492;2023-11-21T10:29:41;11.90;99.90
40374;DHT22;26079;45.958;12.492;2023-11-21T10:32:07;11.90;99.90
40374;DHT22;26079;45.958;12.492;2023-11-21T10:34:33;11.90;99.90
40374;DHT22;26079;45.958;12.492;2023-11-21T10:37:11;12.00;99.90
40374;DHT22;26079;45.958;12.492;2023-11-21T10:39:37;12.10;99.90
40374;DHT22;26079;45.958;12.492;2023-11-21T10:42:04;12.30;99.90
40374;DHT22;26079;45.958;12.492;2023-11-21T10:44:30;12.30;99.90
40374;DHT22;26079;45.958;12.492;2023-11-21T10:46:55;12.40;99.90
40374;DHT22;26079;45.958;12.492;2023-11-21T10:49:24;12.50;99.90
40374;DHT22;26079;45.958;12.492;2023-11-21T10:51:51;12.60;98.80
40374;DHT22;26079;45.958;12.492;2023-11-21T10:54:22;12.70;98.40
40374;DHT22;26079;45.958;12.492;2023-11-21T10:56:57;12.80;97.20
40374;DHT22;26079;45.958;12.492;2023-11-21T10:59:28;12.90;97.30
40374;DHT22;26079;45.958;12.492;2023-11-21T11:01:54;13.00;96.40
40374;DHT22;26079;45.958;12.492;2023-11-21T11:04:23;13.10;96.50
40374;DHT22;26079;45.958;12.492;2023-11-21T11:06:54;13.20;95.40
40374;DHT22;26079;45.958;12.492;2023-11-21T11:09:20;13.30;95.40
40374;DHT22;26079;45.958;12.492;2023-11-21T11:11:46;13.30;94.80
40374;DHT22;26079;45.958;12.492;2023-11-21T11:14:13;13.30;93.60
40374;DHT22;26079;45.958;12.492;2023-11-21T11:16:40;13.40;94.70
40374;DHT22;26079;45.958;12.492;2023-11-21T11:19:09;13.30;94.40
40374;DHT22;26079;45.958;12.492;2023-11-21T11:27:01;13.40;93.80
40374;DHT22;26079;45.958;12.492;2023-11-21T11:30:41;13.40;94.00
40374;DHT22;26079;45.958;12.492;2023-11-21T11:35:25;13.40;93.60
40374;DHT22;26079;45.958;12.492;2023-11-21T11:37:52;13.50;93.80
40374;DHT22;26079;45.958;12.492;2023-11-21T11:40:20;13.50;93.20
40374;DHT22;26079;45.958;12.492;2023-11-21T11:42:58;13.60;92.60
40374;DHT22;26079;45.958;12.492;2023-11-21T11:45:33;13.80;92.90
40374;DHT22;26079;45.958;12.492;2023-11-21T11:48:00;13.80;92.80
40374;DHT22;26079;45.958;12.492;2023-11-21T11:50:26;14.00;93.30
40374;DHT22;26079;45.958;12.492;2023-11-21T11:52:53;14.10;92.70
40374;DHT22;26079;45.958;12.492;2023-11-21T11:55:24;14.20;91.70
40374;DHT22;26079;45.958;12.492;2023-11-21T11:57:54;14.30;90.60
40374;DHT22;26079;45.958;12.492;2023-11-21T12:02:57;14.20;90.90
40374;DHT22;26079;45.958;12.492;2023-11-21T12:05:25;14.20;91.50
40374;DHT22;26079;45.958;12.492;2023-11-21T12:07:53;14.10;91.40
40374;DHT22;26079;45.958;12.492;2023-11-21T12:10:31;13.90;91.10
40374;DHT22;26079;45.958;12.492;2023-11-21T12:12:58;13.90;92.10
40374;DHT22;26079;45.958;12.492;2023-11-21T12:15:24;13.90;90.80
40374;DHT22;26079;45.958;12.492;2023-11-21T12:17:51;13.80;93.40
40374;DHT22;26079;45.958;12.492;2023-11-21T12:20:22;13.80;93.00
40374;DHT22;26079;45.958;12.492;2023-11-21T12:22:48;13.80;93.90
40374;DHT22;26079;45.958;12.492;2023-11-21T12:25:25;13.70;93.90
40374;DHT22;26079;45.958;12.492;2023-11-21T12:27:54;13.60;93.70
40374;DHT22;26079;45.958;12.492;2023-11-21T12:30:22;13.50;95.20
40374;DHT22;26079;45.958;12.492;2023-11-21T12:32:49;13.40;95.50
40374;DHT22;26079;45.958;12.492;2023-11-21T12:35:20;13.40;96.00
40374;DHT22;26079;45.958;12.492;2023-11-21T12:37:47;13.30;96.90
40374;DHT22;26079;45.958;12.492;2023-11-21T12:40:14;13.30;96.60
40374;DHT22;26079;45.958;12.492;2023-11-21T12:42:47;13.20;97.20
40374;DHT22;26079;45.958;12.492;2023-11-21T12:47:50;13.20;97.00
40374;DHT22;26079;45.958;12.492;2023-11-21T12:50:19;13.20;96.50
40374;DHT22;26079;45.958;12.492;2023-11-21T12:52:49;13.30;96.00
40374;DHT22;26079;45.958;12.492;2023-11-21T12:55:22;13.40;95.30
40374;DHT22;26079;45.958;12.492;2023-11-21T12:57:53;13.40;94.70
40374;DHT22;26079;45.958;12.492;2023-11-21T13:00:33;13.30;94.10
40374;DHT22;26079;45.958;12.492;2023-11-21T13:03:03;13.30;94.60
40374;DHT22;26079;45.958;12.492;2023-11-21T13:05:36;13.20;94.00
40374;DHT22;26079;45.958;12.492;2023-11-21T13:08:08;13.20;95.20
40374;DHT22;26079;45.958;12.492;2023-11-21T13:10:36;13.10;94.70
40374;DHT22;26079;45.958;12.492;2023-11-21T13:13:04;13.10;93.00
40374;DHT22;26079;45.958;12.492;2023-11-21T13:15:56;13.20;93.10
40374;DHT22;26079;45.958;12.492;2023-11-21T13:18:26;13.20;93.60
40374;DHT22;26079;45.958;12.492;2023-11-21T13:20:56;13.20;94.50
40374;DHT22;26079;45.958;12.492;2023-11-21T13:23:23;13.30;95.10
40374;DHT22;26079;45.958;12.492;2023-11-21T13:25:49;13.30;94.30
40374;DHT22;26079;45.958;12.492;2023-11-21T13:28:15;13.30;94.80
40374;DHT22;26079;45.958;12.492;2023-11-21T13:30:43;13.30;94.50
40374;DHT22;26079;45.958;12.492;2023-11-21T13:33:10;13.30;94.70
40374;DHT22;26079;45.958;12.492;2023-11-21T13:35:43;13.30;95.00
40374;DHT22;26079;45.958;12.492;2023-11-21T13:38:15;13.30;94.70
40374;DHT22;26079;45.958;12.492;2023-11-21T13:40:50;13.20;94.80
40374;DHT22;26079;45.958;12.492;2023-11-21T13:43:19;13.20;95.10
40374;DHT22;26079;45.958;12.492;2023-11-21T13:45:47;13.20;94.50
40374;DHT22;26079;45.958;12.492;2023-11-21T13:48:15;13.10;95.40
40374;DHT22;26079;45.958;12.492;2023-11-21T13:50:45;13.00;96.00
40374;DHT22;26079;45.958;12.492;2023-11-21T13:53:22;13.00;95.50
40374;DHT22;26079;45.958;12.492;2023-11-21T13:55:54;13.00;96.50
40374;DHT22;26079;45.958;12.492;2023-11-21T13:58:21;13.00;94.60
40374;DHT22;26079;45.958;12.492;2023-11-21T14:01:07;13.00;95.70
40374;DHT22;26079;45.958;12.492;2023-11-21T14:03:50;12.90;96.10
40374;DHT22;26079;45.958;12.492;2023-11-21T14:06:22;12.90;96.00
40374;DHT22;26079;45.958;12.492;2023-11-21T14:08:53;12.90;97.10
40374;DHT22;26079;45.958;12.492;2023-11-21T14:11:22;12.80;97.50
40374;DHT22;26079;45.958;12.492;2023-11-21T14:13:48;12.80;98.00
40374;DHT22;26079;45.958;12.492;2023-11-21T14:16:14;12.80;98.40
40374;DHT22;26079;45.958;12.492;2023-11-21T14:18:42;12.70;97.10
40374;DHT22;26079;45.958;12.492;2023-11-21T14:21:21;12.70;97.00
40374;DHT22;26079;45.958;12.492;2023-11-21T14:23:47;12.70;97.60
40374;DHT22;26079;45.958;12.492;2023-11-21T14:26:13;12.70;98.20
40374;DHT22;26079;45.958;12.492;2023-11-21T14:28:41;12.60;97.30
40374;DHT22;26079;45.958;12.492;2023-11-21T14:31:07;12.60;98.10
40374;DHT22;26079;45.958;12.492;2023-11-21T14:33:34;12.60;97.70
40374;DHT22;26079;45.958;12.492;2023-11-21T14:36:00;12.60;98.00
40374;DHT22;26079;45.958;12.492;2023-11-21T14:38:25;12.60;98.30
40374;DHT22;26079;45.958;12.492;2023-11-21T14:40:51;12.60;98.00
40374;DHT22;26079;45.958;12.492;2023-11-21T14:43:17;12.60;97.50
40374;DHT22;26079;45.958;12.492;2023-11-21T14:45:44;12.50;95.60
40374;DHT22;26079;45.958;12.492;2023-11-21T14:48:10;12.50;95.60
40374;DHT22;26079;45.958;12.492;2023-11-21T14:50:42;12.60;96.40
40374;DHT22;26079;45.958;12.492;2023-11-21T14:53:11;12.60;95.30
40374;DHT22;26079;45.958;12.492;2023-11-21T14:55:39;12.50;93.70
40374;DHT22;26079;45.958;12.492;2023-11-21T14:58:05;12.60;93.30
40374;DHT22;26079;45.958;12.492;2023-11-21T15:00:31;12.60;93.50
40374;DHT22;26079;45.958;12.492;2023-11-21T15:03:17;12.60;94.40
40374;DHT22;26079;45.958;12.492;2023-11-21T15:05:58;12.50;94.70
40374;DHT22;26079;45.958;12.492;2023-11-21T15:08:25;12.40;94.30
40374;DHT22;26079;45.958;12.492;2023-11-21T15:10:57;12.40;93.50
40374;DHT22;26079;45.958;12.492;2023-11-21T15:13:24;12.40;93.40
40374;DHT22;26079;45.958;12.492;2023-11-21T15:15:51;12.40;93.40
40374;DHT22;26079;45.958;12.492;2023-11-21T15:18:20;12.30;92.80
40374;DHT22;26079;45.958;12.492;2023-11-21T15:20:46;12.40;92.60
40374;DHT22;26079;45.958;12.492;2023-11-21T15:23:12;12.30;92.60
40374;DHT22;26079;45.958;12.492;2023-11-21T15:25:42;12.30;93.30
40374;DHT22;26079;45.958;12.492;2023-11-21T15:28:08;12.30;92.80
40374;DHT22;26079;45.958;12.492;2023-11-21T15:30:34;12.20;94.30
40374;DHT22;26079;45.958;12.492;2023-11-21T15:33:01;12.10;93.90
40374;DHT22;26079;45.958;12.492;2023-11-21T15:35:29;12.10;93.00
40374;DHT22;26079;45.958;12.492;2023-11-21T15:37:55;12.10;93.30
40374;DHT22;26079;45.958;12.492;2023-11-21T15:40:24;12.00;93.30
40374;DHT22;26079;45.958;12.492;2023-11-21T15:42:50;11.90;93.70